sensor_id;sensor_type;location;lat;lon;timestamp;P1;durP1;ratioP1;P2;durP2;ratioP2
28862;SDS011;15994;51.796;13.006;2023-12-20T00:02:09;4.40;;;3.50;;
28862;SDS011;15994;51.796;13.006;2023-12-20T00:04:36;4.88;;;3.78;;
28862;SDS011;15994;51.796;13.006;2023-12-20T00:07:03;4.40;;;3.72;;
28862;SDS011;15994;51.796;13.006;2023-12-20T00:09:30;4.35;;;3.35;;
28862;SDS011;15994;51.796;13.006;2023-12-20T00:11:57;4.47;;;3.42;;
28862;SDS011;15994;51.796;13.006;2023-12-20T00:14:24;4.97;;;3.55;;
28862;SDS011;15994;51.796;13.006;2023-12-20T00:16:51;5.03;;;3.63;;
28862;SDS011;15994;51.796;13.006;2023-12-20T00:19:18;5.05;;;3.88;;
28862;SDS011;15994;51.796;13.006;2023-12-20T00:21:45;4.68;;;3.20;;
28862;SDS011;15994;51.796;13.006;2023-12-20T00:24:12;5.78;;;3.67;;
28862;SDS011;15994;51.796;13.006;2023-12-20T00:26:39;4.50;;;3.58;;
28862;SDS011;15994;51.796;13.006;2023-12-20T00:29:05;4.72;;;3.75;;
28862;SDS011;15994;51.796;13.006;2023-12-20T00:31:32;5.55;;;3.50;;
28862;SDS011;15994;51.796;13.006;2023-12-20T00:33:59;4.05;;;3.28;;
28862;SDS011;15994;51.796;13.006;2023-12-20T00:36:26;4.28;;;3.45;;
28862;SDS011;15994;51.796;13.006;2023-12-20T00:38:53;5.40;;;3.67;;
28862;SDS011;15994;51.796;13.006;2023-12-20T00:41:20;5.05;;;3.90;;
28862;SDS011;15994;51.796;13.006;2023-12-20T00:43:47;4.78;;;3.67;;
28862;SDS011;15994;51.796;13.006;2023-12-20T00:46:14;5.30;;;4.00;;
28862;SDS011;15994;51.796;13.006;2023-12-20T00:48:41;4.32;;;3.60;;
28862;SDS011;15994;51.796;13.006;2023-12-20T00:51:10;5.15;;;4.15;;
28862;SDS011;15994;51.796;13.006;2023-12-20T00:53:37;5.13;;;3.72;;
28862;SDS011;15994;51.796;13.006;2023-12-20T00:56:04;5.05;;;4.15;;
28862;SDS011;15994;51.796;13.006;2023-12-20T00:58:31;5.25;;;4.20;;
28862;SDS011;15994;51.796;13.006;2023-12-20T01:00:58;5.53;;;4.03;;
28862;SDS011;15994;51.796;13.006;2023-12-20T01:03:25;6.13;;;4.95;;
28862;SDS011;15994;51.796;13.006;2023-12-20T01:05:52;5.82;;;4.90;;
28862;SDS011;15994;51.796;13.006;2023-12-20T01:08:19;5.45;;;4.55;;
28862;SDS011;15994;51.796;13.006;2023-12-20T01:10:45;5.63;;;4.65;;
28862;SDS011;15994;51.796;13.006;2023-12-20T01:13:12;6.05;;;4.78;;
28862;SDS011;15994;51.796;13.006;2023-12-20T01:15:39;5.43;;;4.22;;
28862;SDS011;15994;51.796;13.006;2023-12-20T01:18:06;6.43;;;4.85;;
28862;SDS011;15994;51.796;13.006;2023-12-20T01:20:34;6.38;;;4.43;;
28862;SDS011;15994;51.796;13.006;2023-12-20T01:23:01;7.30;;;5.20;;
28862;SDS011;15994;51.796;13.006;2023-12-20T01:25:28;6.03;;;4.70;;
28862;SDS011;15994;51.796;13.006;2023-12-20T01:27:55;5.63;;;4.45;;
28862;SDS011;15994;51.796;13.006;2023-12-20T01:30:21;6.75;;;4.55;;
28862;SDS011;15994;51.796;13.006;2023-12-20T01:32:49;6.68;;;4.35;;
28862;SDS011;15994;51.796;13.006;2023-12-20T01:35:16;6.55;;;4.57;;
28862;SDS011;15994;51.796;13.006;2023-12-20T01:37:43;5.55;;;4.78;;
28862;SDS011;15994;51.796;13.006;2023-12-20T01:40:10;6.25;;;4.82;;
28862;SDS011;15994;51.796;13.006;2023-12-20T01:42:37;6.60;;;5.13;;
28862;SDS011;15994;51.796;13.006;2023-12-20T01:45:04;7.65;;;4.85;;
28862;SDS011;15994;51.796;13.006;2023-12-20T01:47:31;5.63;;;4.55;;
28862;SDS011;15994;51.796;13.006;2023-12-20T01:49:58;5.88;;;4.60;;
28862;SDS011;15994;51.796;13.006;2023-12-20T01:52:25;6.38;;;4.68;;
28862;SDS011;15994;51.796;13.006;2023-12-20T01:54:53;5.90;;;4.78;;
28862;SDS011;15994;51.796;13.006;2023-12-20T01:57:25;6.03;;;4.35;;
28862;SDS011;15994;51.796;13.006;2023-12-20T01:59:53;5.68;;;4.55;;
28862;SDS011;15994;51.796;13.006;2023-12-20T02:02:20;5.47;;;4.35;;
28862;SDS011;15994;51.796;13.006;2023-12-20T02:04:47;5.93;;;4.35;;
28862;SDS011;15994;51.796;13.006;2023-12-20T02:07:15;4.97;;;4.32;;
28862;SDS011;15994;51.796;13.006;2023-12-20T02:09:43;6.20;;;4.57;;
28862;SDS011;15994;51.796;13.006;2023-12-20T02:12:10;5.60;;;4.70;;
28862;SDS011;15994;51.796;13.006;2023-12-20T02:14:37;6.13;;;4.63;;
28862;SDS011;15994;51.796;13.006;2023-12-20T02:17:04;5.68;;;4.55;;
28862;SDS011;15994;51.796;13.006;2023-12-20T02:19:31;5.38;;;4.03;;
28862;SDS011;15994;51.796;13.006;2023-12-20T02:22:10;5.70;;;4.68;;
28862;SDS011;15994;51.796;13.006;2023-12-20T02:24:37;5.40;;;4.38;;
28862;SDS011;15994;51.796;13.006;2023-12-20T02:27:05;5.88;;;4.68;;
28862;SDS011;15994;51.796;13.006;2023-12-20T02:29:33;6.68;;;4.75;;
28862;SDS011;15994;51.796;13.006;2023-12-20T02:32:00;6.03;;;5.25;;
28862;SDS011;15994;51.796;13.006;2023-12-20T02:34:27;5.75;;;4.60;;
28862;SDS011;15994;51.796;13.006;2023-12-20T02:36:54;5.85;;;4.70;;
28862;SDS011;15994;51.796;13.006;2023-12-20T02:39:21;6.05;;;4.53;;
28862;SDS011;15994;51.796;13.006;2023-12-20T02:41:48;6.30;;;5.03;;
28862;SDS011;15994;51.796;13.006;2023-12-20T02:44:15;6.20;;;4.63;;
28862;SDS011;15994;51.796;13.006;2023-12-20T02:46:42;5.90;;;4.72;;
28862;SDS011;15994;51.796;13.006;2023-12-20T02:49:09;6.35;;;5.18;;
28862;SDS011;15994;51.796;13.006;2023-12-20T02:51:36;7.10;;;5.43;;
28862;SDS011;15994;51.796;13.006;2023-12-20T02:54:04;7.25;;;5.68;;
28862;SDS011;15994;51.796;13.006;2023-12-20T02:56:32;7.57;;;6.38;;
28862;SDS011;15994;51.796;13.006;2023-12-20T02:58:59;9.20;;;6.45;;
28862;SDS011;15994;51.796;13.006;2023-12-20T03:01:26;7.18;;;5.65;;
28862;SDS011;15994;51.796;13.006;2023-12-20T03:03:53;7.53;;;5.93;;
28862;SDS011;15994;51.796;13.006;2023-12-20T03:06:20;7.70;;;6.45;;
28862;SDS011;15994;51.796;13.006;2023-12-20T03:08:47;6.80;;;5.40;;
28862;SDS011;15994;51.796;13.006;2023-12-20T03:11:14;8.10;;;6.47;;
28862;SDS011;15994;51.796;13.006;2023-12-20T03:13:41;8.27;;;6.72;;
28862;SDS011;15994;51.796;13.006;2023-12-20T03:16:11;7.75;;;6.15;;
28862;SDS011;15994;51.796;13.006;2023-12-20T03:18:39;8.05;;;6.35;;
28862;SDS011;15994;51.796;13.006;2023-12-20T03:21:06;8.13;;;6.60;;
28862;SDS011;15994;51.796;13.006;2023-12-20T03:23:32;6.68;;;5.32;;
28862;SDS011;15994;51.796;13.006;2023-12-20T03:25:59;7.90;;;5.82;;
28862;SDS011;15994;51.796;13.006;2023-12-20T03:28:27;7.63;;;5.97;;
28862;SDS011;15994;51.796;13.006;2023-12-20T03:30:54;7.30;;;5.70;;
28862;SDS011;15994;51.796;13.006;2023-12-20T03:33:21;6.95;;;5.72;;
28862;SDS011;15994;51.796;13.006;2023-12-20T03:35:48;7.57;;;5.78;;
28862;SDS011;15994;51.796;13.006;2023-12-20T03:38:15;7.03;;;5.38;;
28862;SDS011;15994;51.796;13.006;2023-12-20T03:40:42;7.68;;;5.28;;
28862;SDS011;15994;51.796;13.006;2023-12-20T03:43:09;6.15;;;4.88;;
28862;SDS011;15994;51.796;13.006;2023-12-20T03:45:36;6.78;;;5.03;;
28862;SDS011;15994;51.796;13.006;2023-12-20T03:48:03;6.95;;;5.07;;
28862;SDS011;15994;51.796;13.006;2023-12-20T03:50:30;7.05;;;5.38;;
28862;SDS011;15994;51.796;13.006;2023-12-20T03:52:56;7.93;;;5.60;;
28862;SDS011;15994;51.796;13.006;2023-12-20T03:55:23;8.15;;;6.18;;
28862;SDS011;15994;51.796;13.006;2023-12-20T03:57:50;9.70;;;6.72;;
28862;SDS011;15994;51.796;13.006;2023-12-20T04:00:17;9.98;;;6.57;;
28862;SDS011;15994;51.796;13.006;2023-12-20T04:02:45;9.10;;;7.22;;
28862;SDS011;15994;51.796;13.006;2023-12-20T04:05:11;9.60;;;7.07;;
28862;SDS011;15994;51.796;13.006;2023-12-20T04:07:38;11.13;;;7.63;;
28862;SDS011;15994;51.796;13.006;2023-12-20T04:10:05;13.48;;;7.57;;
28862;SDS011;15994;51.796;13.006;2023-12-20T04:12:33;10.13;;;8.30;;
28862;SDS011;15994;51.796;13.006;2023-12-20T04:15:00;10.45;;;7.75;;
28862;SDS011;15994;51.796;13.006;2023-12-20T04:17:28;11.85;;;8.23;;
28862;SDS011;15994;51.796;13.006;2023-12-20T04:19:55;10.60;;;8.23;;
28862;SDS011;15994;51.796;13.006;2023-12-20T04:22:22;12.20;;;8.15;;
28862;SDS011;15994;51.796;13.006;2023-12-20T04:24:49;11.25;;;8.93;;
28862;SDS011;15994;51.796;13.006;2023-12-20T04:27:16;11.52;;;9.02;;
28862;SDS011;15994;51.796;13.006;2023-12-20T04:29:43;12.35;;;8.82;;
28862;SDS011;15994;51.796;13.006;2023-12-20T04:32:10;11.40;;;8.20;;
28862;SDS011;15994;51.796;13.006;2023-12-20T04:34:37;10.90;;;7.82;;
28862;SDS011;15994;51.796;13.006;2023-12-20T04:37:04;11.05;;;7.78;;
28862;SDS011;15994;51.796;13.006;2023-12-20T04:39:31;9.68;;;7.78;;
28862;SDS011;15994;51.796;13.006;2023-12-20T04:41:58;12.40;;;7.78;;
28862;SDS011;15994;51.796;13.006;2023-12-20T04:44:25;11.10;;;7.60;;
28862;SDS011;15994;51.796;13.006;2023-12-20T04:46:52;11.18;;;7.72;;
28862;SDS011;15994;51.796;13.006;2023-12-20T04:49:19;9.07;;;7.13;;
28862;SDS011;15994;51.796;13.006;2023-12-20T04:51:46;9.45;;;7.07;;
28862;SDS011;15994;51.796;13.006;2023-12-20T04:54:12;10.93;;;7.82;;
28862;SDS011;15994;51.796;13.006;2023-12-20T04:56:39;9.75;;;7.43;;
28862;SDS011;15994;51.796;13.006;2023-12-20T04:59:06;10.13;;;7.05;;
28862;SDS011;15994;51.796;13.006;2023-12-20T05:01:33;9.88;;;6.53;;
28862;SDS011;15994;51.796;13.006;2023-12-20T05:04:01;12.90;;;7.25;;
28862;SDS011;15994;51.796;13.006;2023-12-20T05:06:28;10.35;;;6.70;;
28862;SDS011;15994;51.796;13.006;2023-12-20T05:08:55;11.10;;;6.10;;
28862;SDS011;15994;51.796;13.006;2023-12-20T05:11:22;11.95;;;6.25;;
28862;SDS011;15994;51.796;13.006;2023-12-20T05:13:49;12.15;;;7.10;;
28862;SDS011;15994;51.796;13.006;2023-12-20T05:16:16;10.77;;;5.90;;
28862;SDS011;15994;51.796;13.006;2023-12-20T05:18:44;10.63;;;5.50;;
28862;SDS011;15994;51.796;13.006;2023-12-20T05:21:11;12.93;;;5.53;;
28862;SDS011;15994;51.796;13.006;2023-12-20T05:23:38;11.38;;;5.82;;
28862;SDS011;15994;51.796;13.006;2023-12-20T05:26:05;10.98;;;5.13;;
28862;SDS011;15994;51.796;13.006;2023-12-20T05:28:32;10.25;;;4.63;;
28862;SDS011;15994;51.796;13.006;2023-12-20T05:30:59;10.02;;;4.78;;
28862;SDS011;15994;51.796;13.006;2023-12-20T05:33:26;9.68;;;4.30;;
28862;SDS011;15994;51.796;13.006;2023-12-20T05:35:53;9.10;;;4.20;;
28862;SDS011;15994;51.796;13.006;2023-12-20T05:38:20;8.85;;;4.45;;
28862;SDS011;15994;51.796;13.006;2023-12-20T05:40:47;7.20;;;4.07;;
28862;SDS011;15994;51.796;13.006;2023-12-20T05:43:14;10.35;;;4.50;;
28862;SDS011;15994;51.796;13.006;2023-12-20T05:45:41;10.10;;;4.78;;
28862;SDS011;15994;51.796;13.006;2023-12-20T05:48:08;8.95;;;4.60;;
28862;SDS011;15994;51.796;13.006;2023-12-20T05:50:35;12.60;;;4.88;;
28862;SDS011;15994;51.796;13.006;2023-12-20T05:53:02;11.13;;;4.97;;
28862;SDS011;15994;51.796;13.006;2023-12-20T05:55:29;7.57;;;4.60;;
28862;SDS011;15994;51.796;13.006;2023-12-20T05:57:56;9.63;;;4.43;;
28862;SDS011;15994;51.796;13.006;2023-12-20T06:00:23;10.68;;;4.68;;
28862;SDS011;15994;51.796;13.006;2023-12-20T06:02:50;13.93;;;4.78;;
28862;SDS011;15994;51.796;13.006;2023-12-20T06:05:17;8.07;;;4.55;;
28862;SDS011;15994;51.796;13.006;2023-12-20T06:07:44;11.80;;;4.70;;
28862;SDS011;15994;51.796;13.006;2023-12-20T06:10:13;9.40;;;4.90;;
28862;SDS011;15994;51.796;13.006;2023-12-20T06:12:40;8.30;;;5.13;;
28862;SDS011;15994;51.796;13.006;2023-12-20T06:15:07;8.90;;;5.03;;
28862;SDS011;15994;51.796;13.006;2023-12-20T06:17:34;9.73;;;5.10;;
28862;SDS011;15994;51.796;13.006;2023-12-20T06:20:01;13.63;;;5.95;;
28862;SDS011;15994;51.796;13.006;2023-12-20T06:22:32;11.88;;;6.22;;
28862;SDS011;15994;51.796;13.006;2023-12-20T06:24:59;15.73;;;5.93;;
28862;SDS011;15994;51.796;13.006;2023-12-20T06:27:26;11.98;;;5.78;;
28862;SDS011;15994;51.796;13.006;2023-12-20T06:29:53;12.82;;;6.22;;
28862;SDS011;15994;51.796;13.006;2023-12-20T06:32:20;10.93;;;5.20;;
28862;SDS011;15994;51.796;13.006;2023-12-20T06:34:48;16.02;;;6.25;;
28862;SDS011;15994;51.796;13.006;2023-12-20T06:37:15;11.15;;;6.05;;
28862;SDS011;15994;51.796;13.006;2023-12-20T06:39:42;13.15;;;5.50;;
28862;SDS011;15994;51.796;13.006;2023-12-20T06:42:09;10.93;;;5.63;;
28862;SDS011;15994;51.796;13.006;2023-12-20T06:44:36;9.57;;;5.68;;
28862;SDS011;15994;51.796;13.006;2023-12-20T06:47:03;17.05;;;5.63;;
28862;SDS011;15994;51.796;13.006;2023-12-20T06:49:30;15.05;;;5.63;;
28862;SDS011;15994;51.796;13.006;2023-12-20T06:51:57;15.60;;;6.03;;
28862;SDS011;15994;51.796;13.006;2023-12-20T06:54:24;12.65;;;5.75;;
28862;SDS011;15994;51.796;13.006;2023-12-20T06:56:51;14.77;;;6.22;;
28862;SDS011;15994;51.796;13.006;2023-12-20T06:59:18;10.68;;;4.78;;
28862;SDS011;15994;51.796;13.006;2023-12-20T07:01:48;12.85;;;5.28;;
28862;SDS011;15994;51.796;13.006;2023-12-20T07:04:15;13.80;;;5.50;;
28862;SDS011;15994;51.796;13.006;2023-12-20T07:06:45;14.25;;;5.53;;
28862;SDS011;15994;51.796;13.006;2023-12-20T07:09:12;15.82;;;4.93;;
28862;SDS011;15994;51.796;13.006;2023-12-20T07:11:40;10.25;;;4.60;;
28862;SDS011;15994;51.796;13.006;2023-12-20T07:14:07;15.45;;;4.82;;
28862;SDS011;15994;51.796;13.006;2023-12-20T07:16:34;13.65;;;4.35;;
28862;SDS011;15994;51.796;13.006;2023-12-20T07:19:01;10.90;;;4.13;;
28862;SDS011;15994;51.796;13.006;2023-12-20T07:21:28;12.30;;;4.10;;
28862;SDS011;15994;51.796;13.006;2023-12-20T07:23:55;13.40;;;4.07;;
28862;SDS011;15994;51.796;13.006;2023-12-20T07:26:22;10.77;;;3.83;;
28862;SDS011;15994;51.796;13.006;2023-12-20T07:28:49;15.02;;;4.22;;
28862;SDS011;15994;51.796;13.006;2023-12-20T07:31:16;9.90;;;4.05;;
28862;SDS011;15994;51.796;13.006;2023-12-20T07:33:43;12.02;;;4.25;;
28862;SDS011;15994;51.796;13.006;2023-12-20T07:36:10;10.55;;;4.75;;
28862;SDS011;15994;51.796;13.006;2023-12-20T07:38:37;15.85;;;4.65;;
28862;SDS011;15994;51.796;13.006;2023-12-20T07:41:04;12.60;;;5.25;;
28862;SDS011;15994;51.796;13.006;2023-12-20T07:43:30;10.80;;;4.72;;
28862;SDS011;15994;51.796;13.006;2023-12-20T07:46:01;12.77;;;5.60;;
28862;SDS011;15994;51.796;13.006;2023-12-20T07:48:30;14.10;;;5.80;;
28862;SDS011;15994;51.796;13.006;2023-12-20T07:50:57;10.82;;;5.75;;
28862;SDS011;15994;51.796;13.006;2023-12-20T07:53:24;10.55;;;6.30;;
28862;SDS011;15994;51.796;13.006;2023-12-20T07:55:51;11.35;;;5.60;;
28862;SDS011;15994;51.796;13.006;2023-12-20T07:58:18;11.57;;;6.07;;
28862;SDS011;15994;51.796;13.006;2023-12-20T08:00:45;11.27;;;6.10;;
28862;SDS011;15994;51.796;13.006;2023-12-20T08:03:12;12.20;;;6.15;;
28862;SDS011;15994;51.796;13.006;2023-12-20T08:05:39;12.07;;;5.88;;
28862;SDS011;15994;51.796;13.006;2023-12-20T08:08:06;12.80;;;6.03;;
28862;SDS011;15994;51.796;13.006;2023-12-20T08:10:33;11.02;;;5.47;;
28862;SDS011;15994;51.796;13.006;2023-12-20T08:13:00;13.73;;;5.57;;
28862;SDS011;15994;51.796;13.006;2023-12-20T08:15:27;11.73;;;5.70;;
28862;SDS011;15994;51.796;13.006;2023-12-20T08:17:53;8.93;;;4.97;;
28862;SDS011;15994;51.796;13.006;2023-12-20T08:20:20;8.80;;;5.13;;
28862;SDS011;15994;51.796;13.006;2023-12-20T08:22:46;7.32;;;4.05;;
28862;SDS011;15994;51.796;13.006;2023-12-20T08:25:13;6.55;;;3.35;;
28862;SDS011;15994;51.796;13.006;2023-12-20T08:27:40;6.85;;;3.30;;
28862;SDS011;15994;51.796;13.006;2023-12-20T08:30:08;5.97;;;3.33;;
28862;SDS011;15994;51.796;13.006;2023-12-20T08:32:35;5.20;;;2.90;;
28862;SDS011;15994;51.796;13.006;2023-12-20T08:35:02;5.97;;;3.58;;
28862;SDS011;15994;51.796;13.006;2023-12-20T08:37:29;8.80;;;3.25;;
28862;SDS011;15994;51.796;13.006;2023-12-20T08:39:56;5.28;;;3.00;;
28862;SDS011;15994;51.796;13.006;2023-12-20T08:42:23;6.55;;;3.17;;
28862;SDS011;15994;51.796;13.006;2023-12-20T08:44:55;6.15;;;3.35;;
28862;SDS011;15994;51.796;13.006;2023-12-20T08:47:23;6.25;;;3.75;;
28862;SDS011;15994;51.796;13.006;2023-12-20T08:49:50;5.78;;;3.47;;
28862;SDS011;15994;51.796;13.006;2023-12-20T08:52:21;5.35;;;3.33;;
28862;SDS011;15994;51.796;13.006;2023-12-20T08:54:48;6.20;;;3.20;;
28862;SDS011;15994;51.796;13.006;2023-12-20T08:57:16;7.55;;;3.25;;
28862;SDS011;15994;51.796;13.006;2023-12-20T08:59:43;6.95;;;3.20;;
28862;SDS011;15994;51.796;13.006;2023-12-20T09:02:10;8.80;;;3.20;;
28862;SDS011;15994;51.796;13.006;2023-12-20T09:04:37;6.40;;;2.92;;
28862;SDS011;15994;51.796;13.006;2023-12-20T09:07:04;8.18;;;2.88;;
28862;SDS011;15994;51.796;13.006;2023-12-20T09:09:32;8.50;;;2.83;;
28862;SDS011;15994;51.796;13.006;2023-12-20T09:11:59;6.28;;;2.40;;
28862;SDS011;15994;51.796;13.006;2023-12-20T09:14:26;7.65;;;2.25;;
28862;SDS011;15994;51.796;13.006;2023-12-20T09:16:53;7.50;;;2.35;;
28862;SDS011;15994;51.796;13.006;2023-12-20T09:19:21;7.75;;;2.22;;
28862;SDS011;15994;51.796;13.006;2023-12-20T09:21:48;9.73;;;2.40;;
28862;SDS011;15994;51.796;13.006;2023-12-20T09:24:14;8.07;;;2.13;;
28862;SDS011;15994;51.796;13.006;2023-12-20T09:26:41;8.30;;;2.30;;
28862;SDS011;15994;51.796;13.006;2023-12-20T09:29:09;6.85;;;2.30;;
28862;SDS011;15994;51.796;13.006;2023-12-20T09:31:40;4.60;;;2.10;;
28862;SDS011;15994;51.796;13.006;2023-12-20T09:34:08;4.38;;;1.95;;
28862;SDS011;15994;51.796;13.006;2023-12-20T09:36:35;7.00;;;1.85;;
28862;SDS011;15994;51.796;13.006;2023-12-20T09:39:05;8.77;;;1.80;;
28862;SDS011;15994;51.796;13.006;2023-12-20T09:41:33;10.90;;;1.70;;
28862;SDS011;15994;51.796;13.006;2023-12-20T09:44:02;7.22;;;1.58;;
28862;SDS011;15994;51.796;13.006;2023-12-20T09:46:29;9.77;;;2.05;;
28862;SDS011;15994;51.796;13.006;2023-12-20T09:48:59;7.13;;;1.48;;
28862;SDS011;15994;51.796;13.006;2023-12-20T09:51:27;8.93;;;1.90;;
28862;SDS011;15994;51.796;13.006;2023-12-20T09:53:55;8.98;;;1.65;;
28862;SDS011;15994;51.796;13.006;2023-12-20T09:56:23;11.93;;;1.52;;
28862;SDS011;15994;51.796;13.006;2023-12-20T09:58:51;5.95;;;1.50;;
28862;SDS011;15994;51.796;13.006;2023-12-20T10:01:19;9.15;;;1.40;;
28862;SDS011;15994;51.796;13.006;2023-12-20T10:03:46;7.85;;;1.77;;
28862;SDS011;15994;51.796;13.006;2023-12-20T10:06:13;7.63;;;1.40;;
28862;SDS011;15994;51.796;13.006;2023-12-20T10:08:40;7.78;;;1.55;;
28862;SDS011;15994;51.796;13.006;2023-12-20T10:11:07;6.90;;;1.75;;
28862;SDS011;15994;51.796;13.006;2023-12-20T10:13:34;5.35;;;1.60;;
28862;SDS011;15994;51.796;13.006;2023-12-20T10:16:01;7.72;;;1.67;;
28862;SDS011;15994;51.796;13.006;2023-12-20T10:18:28;6.18;;;1.55;;
28862;SDS011;15994;51.796;13.006;2023-12-20T10:20:56;9.45;;;1.83;;
28862;SDS011;15994;51.796;13.006;2023-12-20T10:23:22;8.32;;;1.77;;
28862;SDS011;15994;51.796;13.006;2023-12-20T10:25:56;4.95;;;1.27;;
28862;SDS011;15994;51.796;13.006;2023-12-20T10:28:23;7.18;;;1.60;;
28862;SDS011;15994;51.796;13.006;2023-12-20T10:30:53;8.15;;;1.60;;
28862;SDS011;15994;51.796;13.006;2023-12-20T10:33:25;6.20;;;1.60;;
28862;SDS011;15994;51.796;13.006;2023-12-20T10:35:52;8.57;;;1.83;;
28862;SDS011;15994;51.796;13.006;2023-12-20T10:38:19;8.05;;;1.70;;
28862;SDS011;15994;51.796;13.006;2023-12-20T10:40:46;7.88;;;1.90;;
28862;SDS011;15994;51.796;13.006;2023-12-20T10:43:14;8.73;;;2.13;;
28862;SDS011;15994;51.796;13.006;2023-12-20T10:45:42;7.20;;;1.75;;
28862;SDS011;15994;51.796;13.006;2023-12-20T10:48:10;6.40;;;1.75;;
28862;SDS011;15994;51.796;13.006;2023-12-20T10:50:37;4.95;;;1.58;;
28862;SDS011;15994;51.796;13.006;2023-12-20T10:53:05;6.15;;;1.50;;
28862;SDS011;15994;51.796;13.006;2023-12-20T10:55:33;7.90;;;1.67;;
28862;SDS011;15994;51.796;13.006;2023-12-20T10:58:00;5.82;;;1.67;;
28862;SDS011;15994;51.796;13.006;2023-12-20T11:00:28;7.75;;;1.65;;
28862;SDS011;15994;51.796;13.006;2023-12-20T11:02:56;5.88;;;1.70;;
28862;SDS011;15994;51.796;13.006;2023-12-20T11:05:40;7.68;;;1.90;;
28862;SDS011;15994;51.796;13.006;2023-12-20T11:08:12;9.68;;;1.60;;
28862;SDS011;15994;51.796;13.006;2023-12-20T11:10:58;6.22;;;1.85;;
28862;SDS011;15994;51.796;13.006;2023-12-20T11:16:13;7.65;;;1.58;;
28862;SDS011;15994;51.796;13.006;2023-12-20T11:18:40;9.68;;;1.80;;
28862;SDS011;15994;51.796;13.006;2023-12-20T11:21:07;7.60;;;1.60;;
28862;SDS011;15994;51.796;13.006;2023-12-20T11:23:34;6.97;;;1.58;;
28862;SDS011;15994;51.796;13.006;2023-12-20T11:26:02;6.60;;;1.85;;
28862;SDS011;15994;51.796;13.006;2023-12-20T11:28:29;7.55;;;2.00;;
28862;SDS011;15994;51.796;13.006;2023-12-20T11:30:57;7.47;;;1.92;;
28862;SDS011;15994;51.796;13.006;2023-12-20T11:33:58;5.43;;;1.52;;
28862;SDS011;15994;51.796;13.006;2023-12-20T11:38:58;4.53;;;1.85;;
28862;SDS011;15994;51.796;13.006;2023-12-20T11:41:26;7.45;;;1.90;;
28862;SDS011;15994;51.796;13.006;2023-12-20T11:43:53;10.48;;;1.95;;
28862;SDS011;15994;51.796;13.006;2023-12-20T11:46:20;5.32;;;1.73;;
28862;SDS011;15994;51.796;13.006;2023-12-20T11:48:47;8.43;;;1.58;;
28862;SDS011;15994;51.796;13.006;2023-12-20T11:51:14;8.32;;;1.77;;
28862;SDS011;15994;51.796;13.006;2023-12-20T11:53:41;6.97;;;1.75;;
28862;SDS011;15994;51.796;13.006;2023-12-20T11:56:08;7.45;;;1.92;;
28862;SDS011;15994;51.796;13.006;2023-12-20T11:58:36;8.18;;;1.85;;
28862;SDS011;15994;51.796;13.006;2023-12-20T12:01:03;8.13;;;2.17;;
28862;SDS011;15994;51.796;13.006;2023-12-20T12:03:32;10.60;;;2.00;;
28862;SDS011;15994;51.796;13.006;2023-12-20T12:05:59;7.88;;;2.30;;
28862;SDS011;15994;51.796;13.006;2023-12-20T12:08:27;9.27;;;2.15;;
28862;SDS011;15994;51.796;13.006;2023-12-20T12:10:54;6.90;;;2.22;;
28862;SDS011;15994;51.796;13.006;2023-12-20T12:13:21;9.13;;;2.30;;
28862;SDS011;15994;51.796;13.006;2023-12-20T12:15:48;8.57;;;2.15;;
28862;SDS011;15994;51.796;13.006;2023-12-20T12:18:16;5.85;;;1.85;;
28862;SDS011;15994;51.796;13.006;2023-12-20T12:20:43;9.55;;;2.03;;
28862;SDS011;15994;51.796;13.006;2023-12-20T12:23:10;11.07;;;2.30;;
28862;SDS011;15994;51.796;13.006;2023-12-20T12:25:37;9.63;;;2.30;;
28862;SDS011;15994;51.796;13.006;2023-12-20T12:28:04;8.70;;;1.95;;
28862;SDS011;15994;51.796;13.006;2023-12-20T12:30:32;7.32;;;2.25;;
28862;SDS011;15994;51.796;13.006;2023-12-20T12:32:59;4.45;;;1.80;;
28862;SDS011;15994;51.796;13.006;2023-12-20T12:35:26;7.60;;;2.10;;
28862;SDS011;15994;51.796;13.006;2023-12-20T12:37:53;7.07;;;1.90;;
28862;SDS011;15994;51.796;13.006;2023-12-20T12:40:20;8.73;;;2.08;;
28862;SDS011;15994;51.796;13.006;2023-12-20T12:42:47;6.00;;;1.85;;
28862;SDS011;15994;51.796;13.006;2023-12-20T12:45:14;8.68;;;2.00;;
28862;SDS011;15994;51.796;13.006;2023-12-20T12:47:41;8.32;;;1.98;;
28862;SDS011;15994;51.796;13.006;2023-12-20T12:50:08;13.52;;;2.03;;
28862;SDS011;15994;51.796;13.006;2023-12-20T12:52:35;7.28;;;2.00;;
28862;SDS011;15994;51.796;13.006;2023-12-20T12:55:02;5.57;;;1.70;;
28862;SDS011;15994;51.796;13.006;2023-12-20T12:57:30;6.75;;;2.03;;
28862;SDS011;15994;51.796;13.006;2023-12-20T12:59:57;8.00;;;1.67;;
28862;SDS011;15994;51.796;13.006;2023-12-20T13:02:24;5.57;;;1.50;;
28862;SDS011;15994;51.796;13.006;2023-12-20T13:04:51;8.52;;;2.05;;
28862;SDS011;15994;51.796;13.006;2023-12-20T13:07:17;6.65;;;1.70;;
28862;SDS011;15994;51.796;13.006;2023-12-20T13:09:44;7.80;;;1.80;;
28862;SDS011;15994;51.796;13.006;2023-12-20T13:12:11;9.88;;;1.92;;
28862;SDS011;15994;51.796;13.006;2023-12-20T13:14:38;5.60;;;2.00;;
28862;SDS011;15994;51.796;13.006;2023-12-20T13:17:05;5.85;;;1.50;;
28862;SDS011;15994;51.796;13.006;2023-12-20T13:19:32;9.15;;;2.03;;
28862;SDS011;15994;51.796;13.006;2023-12-20T13:21:59;5.82;;;1.80;;
28862;SDS011;15994;51.796;13.006;2023-12-20T13:24:26;6.32;;;1.60;;
28862;SDS011;15994;51.796;13.006;2023-12-20T13:26:54;6.57;;;1.50;;
28862;SDS011;15994;51.796;13.006;2023-12-20T13:29:21;7.60;;;2.30;;
28862;SDS011;15994;51.796;13.006;2023-12-20T13:31:48;7.18;;;1.70;;
28862;SDS011;15994;51.796;13.006;2023-12-20T13:34:15;7.53;;;1.90;;
28862;SDS011;15994;51.796;13.006;2023-12-20T13:36:43;6.60;;;1.98;;
28862;SDS011;15994;51.796;13.006;2023-12-20T13:39:12;5.07;;;1.58;;
28862;SDS011;15994;51.796;13.006;2023-12-20T13:41:39;6.93;;;1.90;;
28862;SDS011;15994;51.796;13.006;2023-12-20T13:44:06;8.27;;;1.63;;
28862;SDS011;15994;51.796;13.006;2023-12-20T13:46:33;8.13;;;2.25;;
28862;SDS011;15994;51.796;13.006;2023-12-20T13:49:00;5.80;;;1.40;;
28862;SDS011;15994;51.796;13.006;2023-12-20T13:51:27;6.00;;;1.77;;
28862;SDS011;15994;51.796;13.006;2023-12-20T13:53:54;4.90;;;1.30;;
28862;SDS011;15994;51.796;13.006;2023-12-20T13:56:22;4.70;;;1.50;;
28862;SDS011;15994;51.796;13.006;2023-12-20T13:58:49;5.40;;;1.42;;
28862;SDS011;15994;51.796;13.006;2023-12-20T14:01:16;6.13;;;1.60;;
28862;SDS011;15994;51.796;13.006;2023-12-20T14:03:43;6.13;;;1.70;;
28862;SDS011;15994;51.796;13.006;2023-12-20T14:06:10;6.93;;;1.75;;
28862;SDS011;15994;51.796;13.006;2023-12-20T14:08:38;5.85;;;1.88;;
28862;SDS011;15994;51.796;13.006;2023-12-20T14:11:06;7.25;;;1.85;;
28862;SDS011;15994;51.796;13.006;2023-12-20T14:13:33;5.22;;;1.60;;
28862;SDS011;15994;51.796;13.006;2023-12-20T14:16:00;4.07;;;1.52;;
28862;SDS011;15994;51.796;13.006;2023-12-20T14:18:28;6.78;;;1.42;;
28862;SDS011;15994;51.796;13.006;2023-12-20T14:20:56;5.05;;;1.60;;
28862;SDS011;15994;51.796;13.006;2023-12-20T14:23:23;7.47;;;1.83;;
28862;SDS011;15994;51.796;13.006;2023-12-20T14:25:50;4.55;;;1.38;;
28862;SDS011;15994;51.796;13.006;2023-12-20T14:28:17;5.82;;;1.75;;
28862;SDS011;15994;51.796;13.006;2023-12-20T14:30:44;4.95;;;1.35;;
28862;SDS011;15994;51.796;13.006;2023-12-20T14:33:11;8.00;;;1.60;;
28862;SDS011;15994;51.796;13.006;2023-12-20T14:35:38;5.07;;;1.50;;
28862;SDS011;15994;51.796;13.006;2023-12-20T14:38:07;7.35;;;1.70;;